Alexandria, South Dakota
Current Conditions -  °F | °C
As of 11:53 AM on Tuesday 21 Oct 2014 (Local Time) from KMHE Reporting Station
Clear Clear  
Wind Chill: 66°   Ceiling: Unl
Heat Index: 66°   Visibility: 10mi
Dew Point: 44°   Wind: 14mph
Humidity: 45%   Direction: 170°S
Pressure: 29.98"   Gusts: NA
Location:  43.65°N, 97.78°W
Report Text: KMHE 211653Z AUTO 17012KT 10SM CLR 19/07 A2998 RMK AO2 SLP154 T01890067 $
Loading
Personal Weather Stations






























Interactive Weather Map New forecast layout! Learn more

10-Day Weather Forecast

Advertisements
Track Severe Weather on mobile